Station: Mortlake  

  Atmospheric Gas Attenuation - ITU Rec 676-11   ----------------- dB/100km -----------------
Date Time Temp RH % AH g/m3 Dew Point Wind Direction Speed kph Gust kph Barometer mB Rainfall Since 9am 24GHz 47GHz 76GHz 122GHz 134GHz 241GHz
08/05 12:30 13.5 100 11.7 13.5 26 35 1025.6 0.6 26.2 31.8 53.8 141.7 143.6 496.3
08/05 12:20 13.3 100 11.55 13.3 24 33 1025.8 0.6 25.9 31.6 53.3 140.3 141.8 489.9
08/05 12:10 14.2 100 12.21 14.2 24 33 1025.8 0.6 27.3 32.5 55.7 146.6 149.9 518.3
08/05 12:00 13.3 100 11.55 13.3 26 35 1025.9 0.6 25.9 31.6 53.3 140.3 141.8 489.9
08/05 11:50 13.5 100 11.7 13.5 32 39 1026 0.6 26.2 31.8 53.9 141.8 143.6 496.5
08/05 11:40 13.4 100 11.63 13.4 32 35 1025.9 0.6 26.1 31.7 53.6 141.1 142.8 493.4
08/05 11:30 14.2 100 12.21 14.2 28 37 1025.9 0.6 27.3 32.5 55.7 146.6 149.9 518.3
08/05 11:20 13.3 100 11.55 13.3 28 33 1025.9 0.6 25.9 31.6 53.3 140.3 141.8 489.9
08/05 11:10 14.2 100 12.21 14.2 20 24 1025.8 0.6 27.3 32.5 55.7 146.6 149.9 518.3
08/05 11:00 13.1 100 11.41 13.1 28 35 1025.7 0.6 25.6 31.4 52.8 139.0 140.1 483.9
08/05 10:50 14.2 100 12.21 14.2 24 33 1025.5 0.6 27.3 32.5 55.7 146.6 149.8 518.2
08/05 10:40 13.7 100 11.84 13.7 30 32 1025.4 0.6 26.5 32.0 54.3 143.0 145.3 502.2
08/05 10:30 13.2 100 11.48 13.2 26 35 1025.4 0.6 25.8 31.5 53.0 139.6 140.9 486.7
08/05 10:20 12.5 100 11 12.6 24 28 1025.4 0.6 24.8 30.9 51.3 135.1 135.1 466.3
08/05 10:10 12.2 100 10.79 12.3 35 44 1025.4 0.6 24.4 30.6 50.6 133.1 132.5 457.3
08/05 10:00 12.7 100 11.13 12.7 20 32 1025.2 0.4 25.1 31.1 51.8 136.2 136.6 471.7
08/05 09:50 12.5 100 11 12.6 19 22 1025.1 0.2 24.8 30.9 51.3 135.0 135.0 466.2
08/05 09:40 12.7 100 11.13 12.8 20 24 1024.9 0.2 25.1 31.0 51.8 136.2 136.6 471.6
08/05 09:30 12.8 100 11.2 12.8 19 32 1025 0.2 25.2 31.1 52.0 136.9 137.4 474.6
08/05 09:20 12.2 100 10.79 12.3 17 19 1024.9 0.2 24.4 30.6 50.6 133.0 132.4 457.1
08/05 09:10 12.5 100 11 12.6 13 17 1025 0.2 24.8 30.9 51.3 135.0 135.0 466.2
08/05 09:00 12.2 100 10.79 12.2 20 32 1024.9 0 24.4 30.6 50.6 133.0 132.4 457.1
08/05 08:50 12 100 10.66 12.1 20 24 1024.9 4.2 24.1 30.4 50.1 131.8 130.9 451.7
08/05 08:40 11.9 100 10.59 12 24 28 1024.9 4.2 23.9 30.4 49.9 131.1 130.0 448.7
08/05 08:30 11.8 100 10.53 11.8 19 28 1024.8 4.2 23.8 30.3 49.7 130.6 129.3 446.1
08/05 08:20 11.9 100 10.59 12 17 22 1024.7 4 23.9 30.3 49.9 131.1 130.0 448.6
08/05 08:10 11.8 100 10.53 11.9 24 30 1024.6 4 23.8 30.3 49.7 130.6 129.3 446.1
08/05 08:00 11.7 100 10.46 11.7 20 30 1024.4 4 23.7 30.2 49.4 129.9 128.4 443.0
08/05 07:50 11.6 100 10.4 11.7 20 26 1024.3 3.8 23.6 30.1 49.2 129.3 127.7 440.5
08/05 07:40 11.6 100 10.4 11.7 19 24 1024.1 3.6 23.6 30.1 49.2 129.3 127.7 440.4
08/05 07:30 11.6 100 10.4 11.6 22 33 1023.9 3.4 23.6 30.1 49.2 129.3 127.6 440.3
08/05 07:20 11.6 100 10.4 11.7 24 32 1023.8 3.4 23.6 30.1 49.2 129.3 127.6 440.3
08/05 07:10 11.6 100 10.4 11.7 17 20 1023.7 3 23.6 30.1 49.2 129.2 127.6 440.3
08/05 07:00 11.5 100 10.33 11.5 22 39 1023.6 3 23.4 30.0 48.9 128.6 126.8 437.2
08/05 06:50 11.5 100 10.33 11.6 30 37 1023.6 3 23.4 30.0 48.9 128.6 126.8 437.2
08/05 06:40 11.5 100 10.33 11.6 20 28 1023.4 2.8 23.4 30.0 48.9 128.5 126.7 437.2
08/05 06:30 11.5 100 10.33 11.5 20 28 1023.2 2.8 23.4 30.0 48.9 128.5 126.7 437.1
08/05 06:20 11.5 100 10.33 11.6 22 26 1023.1 2.8 23.4 30.0 48.9 128.5 126.7 437.1
08/05 06:10 11.5 100 10.33 11.6 22 32 1023.2 2.8 23.4 30.0 48.9 128.5 126.7 437.1
08/05 06:00 11.5 100 10.33 11.5 19 30 1023.1 2.8 23.4 30.0 48.9 128.5 126.7 437.1
08/05 05:50 11.5 100 10.33 11.6 24 28 1023.1 2.8 23.4 30.0 48.9 128.5 126.7 437.1
08/05 05:40 11.5 100 10.33 11.6 19 22 1023 2.8 23.4 29.9 48.9 128.5 126.7 437.0
08/05 05:30 11.6 100 10.4 11.6 19 26 1022.9 2.8 23.6 30.0 49.1 129.2 127.5 440.0
08/05 05:20 11.5 100 10.33 11.6 20 24 1022.8 2.4 23.4 29.9 48.9 128.5 126.7 437.0
08/05 05:10 11.6 100 10.4 11.7 28 35 1022.7 2.4 23.6 30.0 49.1 129.1 127.5 439.9
08/05 05:00 11.6 100 10.4 11.6 24 37 1022.7 2.4 23.6 30.0 49.1 129.1 127.5 439.9
08/05 04:50 11.5 100 10.33 11.6 24 32 1022.5 2.4 23.4 29.9 48.9 128.4 126.7 436.9
08/05 04:40 11.5 100 10.33 11.6 28 43 1022.2 2.4 23.4 29.9 48.8 128.4 126.6 436.8
08/05 04:30 11.6 100 10.4 11.6 24 41 1022.1 2.4 23.6 30.0 49.1 129.1 127.5 439.7
08/05 04:20 11.6 100 10.4 11.7 24 30 1022.1 2.2 23.6 30.0 49.1 129.1 127.5 439.7
08/05 04:10 11.6 100 10.4 11.7 24 30 1022 2.2 23.6 30.0 49.1 129.0 127.5 439.7
08/05 04:00 11.7 100 10.46 11.7 24 37 1021.9 2 23.7 30.1 49.3 129.6 128.2 442.1
08/05 03:50 11.7 100 10.46 11.8 22 28 1022 2 23.7 30.1 49.3 129.6 128.2 442.2
08/05 03:40 11.6 100 10.4 11.7 24 30 1022 2 23.6 30.0 49.1 129.0 127.5 439.7
08/05 03:30 11.6 100 10.4 11.6 26 39 1021.9 2 23.6 30.0 49.1 129.0 127.4 439.6
08/05 03:20 11.6 100 10.4 11.7 28 33 1021.9 2 23.6 30.0 49.1 129.0 127.4 439.6
08/05 03:10 11.6 100 10.4 11.7 26 33 1022 2 23.6 30.0 49.1 129.0 127.5 439.7
08/05 03:00 11.6 100 10.4 11.6 24 41 1022 2 23.6 30.0 49.1 129.0 127.5 439.7
08/05 02:50 11.6 100 10.4 11.7 26 32 1022.1 2 23.6 30.0 49.1 129.1 127.5 439.7
08/05 02:40 11.8 100 10.53 11.9 19 26 1022 2 23.8 30.2 49.5 130.3 129.0 445.2
08/05 02:30 11.8 100 10.53 11.8 24 41 1022 1.8 23.8 30.2 49.5 130.3 129.0 445.2
08/05 02:20 11.8 100 10.53 11.9 26 32 1022.1 1.8 23.8 30.2 49.5 130.3 129.0 445.2
08/05 02:10 11.7 100 10.46 11.8 19 24 1022.2 1.8 23.7 30.1 49.3 129.6 128.2 442.2
08/05 02:00 11.8 100 10.53 11.8 20 32 1022.2 1.8 23.8 30.2 49.5 130.3 129.0 445.2
08/05 01:50 11.9 100 10.59 12 24 30 1022.3 1.6 24.0 30.2 49.7 130.8 129.8 447.8
08/05 01:40 11.9 100 10.59 12 17 26 1022.5 1.6 24.0 30.3 49.8 130.9 129.8 447.8
08/05 01:30 11.8 100 10.53 11.8 22 33 1022.6 1.6 23.8 30.2 49.6 130.3 129.1 445.4
08/05 01:20 11.7 100 10.46 11.8 22 30 1022.3 1.6 23.7 30.1 49.3 129.6 128.2 442.3
08/05 01:10 11.7 100 10.46 11.8 20 28 1022.6 1.6 23.7 30.1 49.3 129.7 128.2 442.4
08/05 01:00 11.7 100 10.46 11.7 17 28 1022.8 1.2 23.7 30.1 49.3 129.7 128.2 442.4
08/05 00:50 11.7 100 10.46 11.8 20 24 1022.8 1.2 23.7 30.1 49.3 129.7 128.2 442.4
08/05 00:40 11.6 100 10.4 11.7 19 24 1022.9 1.2 23.6 30.0 49.1 129.2 127.5 440.0
08/05 00:30 11.5 100 10.33 11.5 20 32 1022.9 1.2 23.4 29.9 48.9 128.5 126.7 437.0
08/05 00:20 11.5 100 10.33 11.6 17 19 1023 1.2 23.4 29.9 48.9 128.5 126.7 437.0
08/05 00:10 11.4 100 10.27 11.5 22 28 1023.1 1.2 23.3 29.9 48.7 128.0 126.0 434.6
08/05 00:00 11.3 100 10.2 11.3 22 35 1023.1 1.2 23.1 29.8 48.4 127.3 125.1 431.6
07/05 23:50 11.2 100 10.14 11.3 20 28 1023 1.2 23.0 29.7 48.2 126.7 124.4 429.0
07/05 23:40 11.1 100 10.07 11.2 19 22 1023.1 1.2 22.9 29.6 48.0 126.1 123.6 426.1
07/05 23:30 11.1 100 10.07 11.1 20 33 1023.3 1.2 22.9 29.6 48.0 126.1 123.6 426.1
07/05 23:20 10.9 100 9.95 11 17 22 1023.5 1.2 22.6 29.5 47.6 125.1 122.2 421.2
07/05 23:10 10.8 100 9.89 10.9 17 20 1023.8 1.2 22.5 29.4 47.4 124.5 121.5 418.8
07/05 23:00 10.7 100 9.82 10.7 17 28 1023.9 1.2 22.4 29.4 47.2 123.9 120.7 415.8
07/05 22:50 10.7 100 9.82 10.8 15 22 1023.9 1.2 22.4 29.4 47.2 123.9 120.7 415.8
07/05 22:40 10.6 100 9.76 10.7 17 24 1023.7 1.2 22.2 29.3 46.9 123.3 119.9 413.3
07/05 22:30 10.5 100 9.7 10.5 17 22 1023.9 1.2 22.1 29.2 46.7 122.8 119.2 410.8
07/05 22:20 10.4 100 9.64 10.5 19 20 1023.9 0.8 22.0 29.1 46.5 122.3 118.5 408.3
07/05 22:10 10.4 100 9.64 10.5 20 22 1024 0.8 22.0 29.1 46.5 122.3 118.5 408.3
07/05 22:00 10.3 100 9.58 10.3 17 24 1024 0.8 21.9 29.1 46.3 121.7 117.8 405.8
07/05 21:50 10.3 100 9.58 10.4 13 15 1023.9 0.8 21.9 29.1 46.3 121.7 117.8 405.8
07/05 21:40 10.2 100 9.52 10.3 19 22 1023.9 0.8 21.7 29.0 46.1 121.2 117.1 403.3
07/05 21:30 10.2 100 9.52 10.2 17 28 1023.8 0.8 21.7 29.0 46.1 121.1 117.1 403.3
07/05 21:20 10.1 100 9.46 10.2 19 26 1023.9 0.8 21.6 28.9 45.9 120.6 116.4 400.8
07/05 21:10 10.1 100 9.46 10.2 20 28 1023.8 0.8 21.6 28.9 45.9 120.6 116.4 400.7
07/05 21:00 9.9 100 9.34 9.9 17 26 1023.8 0.8 21.4 28.8 45.5 119.5 114.9 395.7
07/05 20:50 9.8 100 9.28 9.9 17 22 1023.7 0.8 21.2 28.7 45.3 118.9 114.2 393.2
07/05 20:40 9.7 100 9.22 9.8 19 24 1023.7 0.8 21.1 28.6 45.1 118.4 113.5 390.7
07/05 20:30 9.7 100 9.22 9.7 17 26 1023.9 0.8 21.1 28.6 45.1 118.4 113.5 390.7
07/05 20:20 9.6 100 9.16 9.7 20 24 1024 0.6 21.0 28.6 44.9 117.9 112.8 388.2
07/05 20:10 9.7 100 9.22 9.7 13 17 1024.1 0.6 21.1 28.6 45.1 118.4 113.5 390.8
07/05 20:00 9.7 100 9.22 9.7 19 30 1024.1 0.2 21.1 28.6 45.1 118.4 113.5 390.8

Last Refresh: 08-May-2026 12:07:37

Bureau of Meteorology